Time;durP1;ratioP1;P1;durP2;ratioP2;P2;SDS_P1;SDS_P2;PMS_P1;PMS_P2;Temp;Humidity;BMP_temperature;BMP_pressure;BME280_temperature;BME280_humidity;BME280_pressure;Samples;Min_cycle;Max_cycle;Signal;HPM_P1;HPM_P2
2022/09/08 00:01:11;;;;;;;4.00;1.90;;;;;;;18.99;49.83;100903.27;117189;1185;23631;-63
2022/09/08 00:03:39;;;;;;;3.30;1.90;;;;;;;19.02;49.90;100901.71;117029;1187;21895;-63
2022/09/08 00:06:08;;;;;;;7.70;1.80;;;;;;;19.05;50.07;100902.52;117109;1183;24185;-59
2022/09/08 00:08:35;;;;;;;2.90;1.50;;;;;;;19.07;49.56;100901.36;117340;1186;21849;-59
2022/09/08 00:11:03;;;;;;;3.70;1.60;;;;;;;19.10;49.54;100900.90;117342;1182;24243;-59
2022/09/08 00:13:31;;;;;;;2.80;1.40;;;;;;;19.12;49.99;100899.55;117180;1183;23667;-62
2022/09/08 00:16:02;;;;;;;4.30;2.10;;;;;;;19.13;50.46;100896.15;117292;1185;21930;-59
2022/09/08 00:18:35;;;;;;;6.10;2.10;;;;;;;19.14;50.12;100891.66;117053;1183;22931;-63
2022/09/08 00:21:02;;;;;;;4.30;1.70;;;;;;;19.14;50.21;100889.52;117146;1185;21866;-64
2022/09/08 00:23:29;;;;;;;6.30;1.90;;;;;;;19.14;50.62;100888.82;117058;1186;21859;-60
2022/09/08 00:25:56;;;;;;;3.60;1.70;;;;;;;19.14;50.66;100885.97;117100;1186;21855;-63
2022/09/08 00:28:23;;;;;;;4.10;1.60;;;;;;;19.15;51.24;100887.15;117318;1182;21858;-59
2022/09/08 00:30:54;;;;;;;3.30;1.80;;;;;;;19.17;50.49;100884.77;117159;1187;21907;-62
2022/09/08 00:33:22;;;;;;;5.50;1.90;;;;;;;19.18;50.76;100881.71;117308;1185;22961;-64
2022/09/08 00:35:51;;;;;;;5.30;1.70;;;;;;;19.19;50.28;100880.61;117378;1186;21863;-63
2022/09/08 00:38:21;;;;;;;3.10;1.70;;;;;;;19.21;50.08;100877.14;117271;1182;22623;-60
2022/09/08 00:40:49;;;;;;;3.80;2.00;;;;;;;19.23;50.61;100874.95;117163;1183;22932;-60
2022/09/08 00:43:36;;;;;;;3.00;1.60;;;;;;;19.23;50.64;100873.16;117095;1188;21855;-64
2022/09/08 00:46:14;;;;;;;5.00;1.80;;;;;;;19.23;51.00;100873.67;117118;1185;23470;-60
2022/09/08 00:48:50;;;;;;;4.10;1.70;;;;;;;19.23;50.64;100869.94;117293;1186;21859;-63
2022/09/08 00:51:17;;;;;;;3.30;1.80;;;;;;;19.23;51.04;100870.48;117165;1185;23653;-63
2022/09/08 00:53:44;;;;;;;4.80;1.90;;;;;;;19.22;51.20;100866.80;117064;1184;22927;-60
2022/09/08 00:56:11;;;;;;;4.50;1.80;;;;;;;19.21;51.42;100868.10;117073;1184;24704;-64
2022/09/08 00:58:38;;;;;;;4.20;1.80;;;;;;;19.22;51.10;100865.71;117266;1184;22925;-65
2022/09/08 01:01:06;;;;;;;3.80;2.10;;;;;;;19.24;51.97;100866.54;117001;1185;24175;-59
2022/09/08 01:03:33;;;;;;;5.00;1.80;;;;;;;19.24;51.74;100862.95;117109;1188;22929;-64
2022/09/08 01:14:58;;;;;;;3.50;2.00;;;;;;;19.29;51.83;100851.22;116955;1182;23631;-64
2022/09/08 01:17:27;;;;;;;3.70;2.20;;;;;;;19.28;52.08;100852.84;117313;1185;23554;-60
2022/09/08 01:19:55;;;;;;;6.60;2.10;;;;;;;19.27;51.89;100853.95;117132;1182;22921;-60
2022/09/08 01:22:58;;;;;;;3.40;1.80;;;;;;;19.26;51.72;100850.08;117127;1184;23452;-64
2022/09/08 01:25:28;;;;;;;3.90;2.10;;;;;;;19.27;52.21;100847.73;117007;1184;22942;-60
2022/09/08 01:28:10;;;;;;;5.80;2.20;;;;;;;19.28;52.15;100848.77;117028;1184;23453;-65
2022/09/08 01:30:37;;;;;;;5.40;2.10;;;;;;;19.29;51.51;100846.22;116816;1188;23654;-60
2022/09/08 01:33:05;;;;;;;3.90;2.10;;;;;;;19.29;52.51;100843.88;117006;1188;23540;-60
2022/09/08 01:35:35;;;;;;;5.20;2.10;;;;;;;19.30;52.40;100843.52;116811;1187;22919;-64
2022/09/08 01:38:01;;;;;;;3.80;2.00;;;;;;;19.31;52.50;100843.45;117076;1186;22932;-59
2022/09/08 01:40:28;;;;;;;3.20;2.10;;;;;;;19.32;52.93;100841.64;116986;1182;22913;-64
2022/09/08 01:42:55;;;;;;;4.20;1.80;;;;;;;19.34;53.05;100839.11;117063;1184;22927;-60
2022/09/08 01:45:23;;;;;;;5.40;1.90;;;;;;;19.36;52.25;100842.91;117033;1184;23581;-64
2022/09/08 01:47:50;;;;;;;3.70;2.40;;;;;;;19.39;52.91;100842.81;117025;1183;22932;-60
2022/09/08 01:50:17;;;;;;;4.20;2.10;;;;;;;19.41;52.49;100840.94;117070;1185;23611;-64
2022/09/08 01:52:44;;;;;;;5.40;1.80;;;;;;;19.42;52.42;100840.73;117031;1183;22928;-65
2022/09/08 01:55:11;;;;;;;5.50;2.30;;;;;;;19.42;53.15;100839.27;117120;1184;24153;-64
2022/09/08 01:57:38;;;;;;;4.40;1.80;;;;;;;19.43;52.06;100840.48;117050;1185;22950;-60
2022/09/08 02:00:06;;;;;;;7.10;2.50;;;;;;;19.43;52.38;100839.23;117048;1186;23474;-60
2022/09/08 02:02:33;;;;;;;3.20;2.00;;;;;;;19.42;52.32;100836.98;117319;1183;23302;-60
2022/09/08 02:05:01;;;;;;;4.40;2.00;;;;;;;19.41;52.12;100833.48;117139;1186;23654;-60
2022/09/08 02:07:27;;;;;;;4.60;1.80;;;;;;;19.39;51.95;100832.65;117087;1185;22932;-59
2022/09/08 02:09:54;;;;;;;3.00;1.90;;;;;;;19.38;51.82;100831.46;117253;1185;22951;-64
2022/09/08 02:12:21;;;;;;;3.20;2.00;;;;;;;19.35;53.03;100836.02;117279;1186;24281;-64
2022/09/08 02:14:48;;;;;;;6.00;1.80;;;;;;;19.31;52.98;100830.11;117261;1183;21852;-59
2022/09/08 02:17:15;;;;;;;5.30;2.00;;;;;;;19.31;52.73;100828.36;117195;1183;24227;-63
2022/09/08 02:19:42;;;;;;;4.60;2.30;;;;;;;19.29;52.88;100830.05;117125;1185;23647;-59
2022/09/08 02:22:09;;;;;;;3.70;1.80;;;;;;;19.27;52.88;100826.20;117319;1183;24300;-59
2022/09/08 02:24:36;;;;;;;8.10;2.80;;;;;;;19.26;53.24;100829.27;117317;1182;22949;-58
2022/09/08 02:27:04;;;;;;;4.60;2.20;;;;;;;19.24;53.17;100827.55;117354;1186;23545;-63
2022/09/08 02:29:31;;;;;;;4.20;2.40;;;;;;;19.23;53.69;100828.88;117126;1184;23024;-63
2022/09/08 02:31:57;;;;;;;3.50;1.90;;;;;;;19.21;53.48;100828.59;117114;1184;24164;-59
2022/09/08 02:34:24;;;;;;;4.70;2.10;;;;;;;19.19;53.73;100830.45;117046;1186;23651;-63
2022/09/08 02:36:51;;;;;;;3.90;2.00;;;;;;;19.20;53.47;100826.67;117089;1183;23587;-59
2022/09/08 02:39:20;;;;;;;6.70;2.30;;;;;;;19.20;53.35;100825.45;117287;1186;21891;-63
2022/09/08 02:41:47;;;;;;;6.00;2.50;;;;;;;19.18;52.78;100826.56;117327;1185;21857;-64
2022/09/08 02:44:14;;;;;;;6.20;2.00;;;;;;;19.16;53.38;100825.04;117354;1183;21974;-63
2022/09/08 02:46:41;;;;;;;6.80;2.00;;;;;;;19.15;53.40;100827.59;117412;1182;23440;-64
2022/09/08 02:49:10;;;;;;;6.20;1.90;;;;;;;19.14;53.40;100821.59;117220;1186;21855;-60
2022/09/08 02:51:36;;;;;;;3.90;2.50;;;;;;;19.12;54.17;100823.24;117009;1185;21857;-63
2022/09/08 02:54:03;;;;;;;8.40;2.60;;;;;;;19.10;54.47;100822.63;116962;1183;22929;-58
2022/09/08 02:56:30;;;;;;;4.90;1.90;;;;;;;19.09;53.59;100821.42;117033;1183;24143;-58
2022/09/08 02:58:57;;;;;;;5.60;2.20;;;;;;;19.09;54.06;100820.20;117037;1184;22946;-58
2022/09/08 03:01:24;;;;;;;6.30;2.30;;;;;;;19.08;53.69;100820.25;117015;1182;24611;-58
2022/09/08 03:03:52;;;;;;;4.80;2.20;;;;;;;19.06;54.52;100815.48;117112;1186;21901;-58
2022/09/08 03:06:19;;;;;;;6.30;2.30;;;;;;;19.05;54.66;100819.65;117161;1187;21860;-62
2022/09/08 03:08:46;;;;;;;4.70;2.10;;;;;;;19.02;53.81;100818.12;117009;1187;21854;-64
2022/09/08 03:11:13;;;;;;;10.20;2.60;;;;;;;19.02;53.81;100819.91;117001;1187;21911;-62
2022/09/08 03:13:41;;;;;;;7.20;2.40;;;;;;;19.02;53.76;100821.32;116997;1186;21848;-64
2022/09/08 03:16:08;;;;;;;8.60;2.50;;;;;;;19.02;53.92;100822.77;117066;1188;23439;-59
2022/09/08 03:18:35;;;;;;;11.00;2.60;;;;;;;19.02;54.59;100821.67;116967;1187;21854;-59
2022/09/08 03:21:08;;;;;;;4.30;2.10;;;;;;;19.01;54.46;100818.36;116975;1184;23457;-64
2022/09/08 03:23:35;;;;;;;4.40;2.00;;;;;;;18.99;53.97;100814.34;116995;1185;21847;-58
2022/09/08 03:26:24;;;;;;;6.50;2.70;;;;;;;18.97;54.56;100821.91;117137;1184;23557;-63
2022/09/08 03:28:51;;;;;;;8.50;2.50;;;;;;;18.94;54.80;100822.54;116977;1186;21866;-64
2022/09/08 03:31:19;;;;;;;10.50;2.70;;;;;;;18.91;54.14;100825.15;116995;1185;23479;-64
2022/09/08 03:33:46;;;;;;;7.40;3.10;;;;;;;18.89;55.11;100824.84;117045;1187;21867;-64
2022/09/08 03:36:14;;;;;;;6.50;2.80;;;;;;;18.89;55.27;100824.33;116973;1186;23556;-64
2022/09/08 03:38:40;;;;;;;7.60;2.70;;;;;;;18.90;55.38;100826.79;117075;1184;22932;-58
2022/09/08 03:41:09;;;;;;;8.80;2.80;;;;;;;18.91;56.61;100832.29;116963;1187;23453;-58
2022/09/08 03:43:36;;;;;;;6.50;3.10;;;;;;;18.91;56.70;100831.20;117035;1184;23691;-61
2022/09/08 03:46:09;;;;;;;11.00;3.00;;;;;;;18.92;55.58;100837.54;116991;1187;22929;-65
2022/09/08 03:48:37;;;;;;;10.60;3.30;;;;;;;18.92;56.10;100838.77;117006;1188;21901;-61
2022/09/08 03:51:25;;;;;;;8.80;3.60;;;;;;;18.94;55.37;100838.54;117074;1183;22925;-58
2022/09/08 03:53:53;;;;;;;9.70;3.00;;;;;;;18.95;55.64;100838.30;117083;1188;21849;-63
2022/09/08 03:56:20;;;;;;;9.90;3.20;;;;;;;18.95;55.76;100841.69;117041;1184;23475;-58
2022/09/08 03:58:47;;;;;;;16.60;3.30;;;;;;;18.94;55.43;100838.17;117077;1186;22916;-58
2022/09/08 04:01:16;;;;;;;11.20;2.60;;;;;;;18.94;55.77;100839.23;117052;1184;23497;-63
2022/09/08 04:03:43;;;;;;;7.40;3.10;;;;;;;18.96;55.15;100840.45;117046;1187;21861;-63
2022/09/08 04:06:12;;;;;;;10.20;3.00;;;;;;;18.97;56.62;100840.24;117334;1188;21852;-59
2022/09/08 04:08:39;;;;;;;6.30;2.40;;;;;;;18.98;55.59;100842.67;117266;1185;23564;-58
2022/09/08 04:11:06;;;;;;;8.40;3.00;;;;;;;18.99;55.88;100834.42;117327;1186;23376;-64
2022/09/08 04:13:33;;;;;;;9.70;3.30;;;;;;;19.00;55.57;100831.39;117045;1185;23546;-59
2022/09/08 04:16:03;;;;;;;7.20;2.80;;;;;;;18.99;57.20;100828.20;117258;1186;21854;-63
2022/09/08 04:18:31;;;;;;;9.60;3.40;;;;;;;19.00;56.49;100830.47;117131;1184;22930;-59
2022/09/08 04:21:01;;;;;;;8.20;2.70;;;;;;;19.04;56.14;100832.66;118752;1186;21797;-60
2022/09/08 04:23:28;;;;;;;10.60;3.20;;;;;;;19.06;57.21;100835.39;117047;1186;22084;-64
2022/09/08 04:26:00;;;;;;;6.60;2.70;;;;;;;19.12;57.09;100831.97;117086;1186;22932;-58
2022/09/08 04:28:27;;;;;;;6.90;2.80;;;;;;;19.17;58.13;100832.47;117255;1184;21856;-58
2022/09/08 04:30:54;;;;;;;7.50;2.70;;;;;;;19.25;57.62;100828.42;116965;1188;23767;-58
2022/09/08 04:33:21;;;;;;;7.30;2.70;;;;;;;19.33;57.09;100821.15;117330;1186;22942;-63
2022/09/08 04:35:48;;;;;;;6.90;3.00;;;;;;;19.41;57.57;100823.13;117523;1186;22113;-61
2022/09/08 04:38:29;;;;;;;;;;;;;;;19.48;57.72;100822.85;117078;1186;22929;-59
2022/09/08 04:41:02;;;;;;;10.70;3.00;;;;;;;19.55;57.21;100826.65;117130;1186;21912;-64
2022/09/08 04:43:31;;;;;;;9.70;3.00;;;;;;;19.63;56.90;100829.34;117075;1186;23002;-64
2022/09/08 04:46:12;;;;;;;8.90;3.00;;;;;;;19.71;57.07;100830.23;117337;1186;22723;-64
2022/09/08 04:48:39;;;;;;;7.00;3.10;;;;;;;19.79;57.43;100831.28;117403;1186;22184;-59
2022/09/08 04:51:07;;;;;;;12.90;3.00;;;;;;;19.84;57.29;100824.32;116945;1186;22502;-64
2022/09/08 04:53:35;;;;;;;7.30;3.00;;;;;;;19.91;56.88;100820.68;117437;1186;23453;-59
2022/09/08 04:56:04;;;;;;;6.00;2.90;;;;;;;19.96;57.07;100815.98;117189;1182;22904;-59
2022/09/08 04:58:32;;;;;;;8.00;3.00;;;;;;;20.03;57.01;100816.90;117127;1186;24527;-59
2022/09/08 05:01:06;;;;;;;8.10;3.20;;;;;;;20.11;56.29;100816.41;117134;1187;23030;-63
2022/09/08 05:03:33;;;;;;;6.30;3.10;;;;;;;20.18;57.77;100821.42;117217;1186;22930;-60
2022/09/08 05:06:04;;;;;;;7.40;3.00;;;;;;;20.28;56.54;100817.05;117097;1190;21865;-65
2022/09/08 05:08:31;;;;;;;7.50;3.10;;;;;;;20.39;56.25;100814.59;117126;1184;24171;-60
2022/09/08 05:10:59;;;;;;;6.30;2.80;;;;;;;20.52;56.12;100807.41;116951;1187;22930;-59
2022/09/08 05:13:26;;;;;;;9.10;2.90;;;;;;;20.65;55.85;100802.66;117127;1186;22993;-64
2022/09/08 05:16:03;;;;;;;6.70;2.50;;;;;;;20.78;55.81;100799.56;117041;1187;22930;-59
2022/09/08 05:18:30;;;;;;;8.50;3.30;;;;;;;20.93;55.99;100801.52;116996;1187;21868;-59
2022/09/08 05:20:57;;;;;;;8.10;3.20;;;;;;;21.09;56.20;100801.30;117018;1186;22796;-60
2022/09/08 05:23:24;;;;;;;12.70;3.50;;;;;;;21.22;56.01;100800.81;117019;1186;23017;-65
2022/09/08 05:25:56;;;;;;;8.70;3.10;;;;;;;21.34;56.01;100800.21;116986;1185;24175;-65
2022/09/08 05:28:24;;;;;;;8.10;3.30;;;;;;;21.49;56.03;100801.08;117026;1184;21970;-60
2022/09/08 05:30:52;;;;;;;9.00;2.90;;;;;;;21.63;55.60;100795.55;117241;1183;23650;-60
2022/09/08 05:33:19;;;;;;;7.60;3.30;;;;;;;21.74;55.94;100789.83;117047;1185;21903;-60
2022/09/08 05:35:49;;;;;;;8.70;3.70;;;;;;;21.88;55.35;100788.41;117140;1186;22930;-60
2022/09/08 05:38:16;;;;;;;7.20;3.30;;;;;;;22.03;55.53;100792.77;117151;1186;21874;-60
2022/09/08 05:40:44;;;;;;;9.60;3.70;;;;;;;22.16;55.15;100795.11;116942;1186;23560;-65
2022/09/08 05:43:11;;;;;;;8.30;4.30;;;;;;;22.25;55.51;100794.98;117060;1186;22995;-61
2022/09/08 05:45:43;;;;;;;8.30;3.60;;;;;;;22.34;55.50;100790.73;119153;1182;22165;-66
2022/09/08 05:48:10;;;;;;;11.20;3.80;;;;;;;22.46;55.45;100792.05;117637;1187;21848;-65
2022/09/08 05:50:37;;;;;;;10.00;4.50;;;;;;;22.59;55.57;100792.98;117024;1186;21956;-66
2022/09/08 05:53:05;;;;;;;11.30;4.10;;;;;;;22.72;54.96;100792.59;118734;1185;22711;-66
2022/09/08 05:55:32;;;;;;;8.80;3.70;;;;;;;22.90;55.40;100788.20;118470;1186;21883;-61
2022/09/08 05:57:58;;;;;;;7.10;3.70;;;;;;;23.02;55.52;100788.36;117377;1182;22612;-66
2022/09/08 06:00:45;;;;;;;7.70;3.70;;;;;;;23.18;55.60;100784.42;116994;1186;21875;-65
2022/09/08 06:03:14;;;;;;;9.10;3.30;;;;;;;23.34;55.32;100784.73;117071;1183;21856;-60
2022/09/08 06:05:41;;;;;;;6.70;3.50;;;;;;;23.45;55.41;100787.34;117101;1186;22904;-67
2022/09/08 06:08:09;;;;;;;9.70;3.50;;;;;;;23.54;55.14;100786.95;117145;1185;21997;-60
2022/09/08 06:10:37;;;;;;;7.10;3.30;;;;;;;23.64;54.62;100786.77;116867;1188;23734;-60
2022/09/08 06:13:04;;;;;;;9.10;3.80;;;;;;;23.70;54.60;100782.59;117260;1186;22629;-60
2022/09/08 06:15:32;;;;;;;8.60;4.20;;;;;;;23.83;54.02;100783.09;116954;1186;21848;-60
2022/09/08 06:18:01;;;;;;;6.90;3.50;;;;;;;23.98;53.91;100781.45;117022;1183;22952;-67
2022/09/08 06:20:28;;;;;;;11.00;3.60;;;;;;;24.08;53.72;100781.35;117086;1180;22933;-60
2022/09/08 06:22:55;;;;;;;8.30;3.30;;;;;;;24.17;53.53;100778.48;117074;1186;22965;-61
2022/09/08 06:25:22;;;;;;;10.30;3.90;;;;;;;24.21;53.42;100776.63;116941;1184;23557;-67
2022/09/08 06:28:02;;;;;;;6.90;3.00;;;;;;;24.21;53.07;100774.85;116964;1186;23586;-67
2022/09/08 06:30:29;;;;;;;5.30;2.90;;;;;;;24.19;52.87;100779.25;117032;1187;21864;-60
2022/09/08 06:33:21;;;;;;;6.90;3.10;;;;;;;24.16;52.83;100775.16;117254;1186;23938;-61
2022/09/08 06:35:59;;;;;;;7.10;3.30;;;;;;;24.12;52.66;100778.42;116975;1186;22004;-67
2022/09/08 06:38:34;;;;;;;7.50;3.20;;;;;;;24.11;52.77;100782.80;116999;1186;24224;-60
2022/09/08 06:41:10;;;;;;;4.90;3.00;;;;;;;24.14;52.65;100784.02;117103;1188;21899;-67
2022/09/08 06:43:50;;;;;;;5.20;2.90;;;;;;;24.21;52.69;100780.58;117171;1186;21945;-67
2022/09/08 06:46:28;;;;;;;4.90;3.10;;;;;;;24.39;52.63;100783.90;116753;1186;21869;-61
2022/09/08 06:48:55;;;;;;;5.30;3.00;;;;;;;24.60;52.17;100780.56;117649;1184;22929;-61
2022/09/08 06:51:43;;;;;;;11.40;3.20;;;;;;;24.72;51.56;100776.44;117454;1186;21857;-60
2022/09/08 06:54:19;;;;;;;8.30;3.30;;;;;;;24.77;51.41;100778.05;116979;1183;22879;-66
2022/09/08 06:57:02;;;;;;;6.90;3.20;;;;;;;24.80;50.95;100782.69;117492;1188;22967;-66
2022/09/08 06:59:59;;;;;;;4.80;3.00;;;;;;;24.85;50.26;100784.95;117159;1186;22641;-66
2022/09/08 07:02:52;;;;;;;8.10;3.20;;;;;;;24.89;50.21;100783.77;117135;1188;21858;-66
2022/09/08 07:05:42;;;;;;;5.20;3.10;;;;;;;25.00;50.36;100785.76;117002;1186;23555;-66
2022/09/08 07:08:19;;;;;;;12.80;3.60;;;;;;;25.15;49.90;100784.93;117316;1186;22924;-65
2022/09/08 07:10:56;;;;;;;5.70;2.90;;;;;;;25.24;49.41;100783.45;117278;1182;23571;-67
2022/09/08 07:13:41;;;;;;;6.00;2.80;;;;;;;25.32;49.15;100783.99;117064;1188;21858;-60
2022/09/08 07:16:26;;;;;;;7.00;3.00;;;;;;;25.45;48.90;100782.56;117209;1185;23547;-61
2022/09/08 07:19:23;;;;;;;6.50;3.10;;;;;;;25.67;47.16;100779.66;117126;1188;21865;-66
2022/09/08 07:22:31;;;;;;;5.80;3.20;;;;;;;25.88;46.47;100778.34;116930;1187;21872;-66
2022/09/08 07:25:28;;;;;;;6.60;3.10;;;;;;;26.03;46.67;100781.09;117123;1187;21852;-67
2022/09/08 07:28:09;;;;;;;7.20;3.50;;;;;;;26.17;46.36;100783.87;117329;1180;21853;-67
2022/09/08 07:30:37;;;;;;;5.70;3.80;;;;;;;26.28;45.35;100784.37;117086;1186;22930;-66
2022/09/08 07:33:10;;;;;;;5.90;3.00;;;;;;;26.37;45.25;100786.25;117099;1183;21932;-60
2022/09/08 07:36:03;;;;;;;5.70;3.30;;;;;;;26.47;45.05;100784.42;117309;1185;22118;-59
2022/09/08 07:38:39;;;;;;;7.10;3.50;;;;;;;26.50;44.04;100785.65;117216;1186;23551;-60
2022/09/08 07:41:08;;;;;;;10.70;3.40;;;;;;;26.56;44.59;100782.30;117278;1186;21996;-61
2022/09/08 07:43:44;;;;;;;8.50;3.60;;;;;;;26.68;43.91;100781.84;117121;1188;24169;-67
2022/09/08 07:46:19;;;;;;;5.40;3.20;;;;;;;26.75;44.69;100776.80;117297;1182;21859;-61
2022/09/08 07:49:02;;;;;;;4.60;3.20;;;;;;;26.80;43.47;100778.80;117169;1186;22884;-60
2022/09/08 07:51:36;;;;;;;9.60;3.60;;;;;;;26.94;43.63;100782.64;116998;1184;21972;-59
2022/09/08 07:54:15;;;;;;;7.00;3.50;;;;;;;27.07;43.95;100780.95;116950;1186;22835;-59
2022/09/08 07:56:45;;;;;;;7.80;3.70;;;;;;;27.14;43.18;100774.81;116969;1186;21870;-59
2022/09/08 07:59:46;;;;;;;5.90;3.40;;;;;;;27.26;42.86;100765.68;116945;1186;21875;-59
2022/09/08 08:02:39;;;;;;;7.10;3.40;;;;;;;27.39;43.35;100767.51;117272;1189;21841;-59
2022/09/08 08:05:27;;;;;;;8.50;3.80;;;;;;;27.52;42.55;100770.33;117289;1185;22082;-68
2022/09/08 08:08:23;;;;;;;7.80;3.70;;;;;;;27.67;42.74;100768.84;117062;1187;22930;-60
2022/09/08 08:11:28;;;;;;;5.00;3.00;;;;;;;27.91;42.52;100768.23;117164;1189;23550;-60
2022/09/08 08:14:23;;;;;;;7.90;3.60;;;;;;;28.12;41.87;100765.69;117115;1186;22933;-59
2022/09/08 08:17:05;;;;;;;8.20;4.20;;;;;;;28.26;41.30;100767.74;117164;1187;23558;-69
2022/09/08 08:19:52;;;;;;;6.80;2.90;;;;;;;28.31;40.13;100769.90;117127;1186;21973;-60
2022/09/08 08:22:43;;;;;;;9.70;3.10;;;;;;;28.32;40.35;100768.23;117410;1186;22537;-61
2022/09/08 08:25:28;;;;;;;5.60;3.20;;;;;;;28.42;40.50;100762.89;117141;1187;21857;-61
2022/09/08 08:28:11;;;;;;;4.40;3.10;;;;;;;28.63;40.09;100753.41;117006;1188;21857;-61
2022/09/08 08:31:03;;;;;;;8.20;2.90;;;;;;;28.65;39.00;100756.52;117061;1187;22815;-70
2022/09/08 08:33:48;;;;;;;5.90;3.30;;;;;;;28.50;39.15;100755.33;117033;1188;24188;-61
2022/09/08 08:36:17;;;;;;;9.80;3.80;;;;;;;28.57;40.09;100747.61;117101;1183;23581;-70
2022/09/08 08:38:48;;;;;;;5.90;2.80;;;;;;;28.75;39.18;100742.00;117143;1185;22673;-71
2022/09/08 08:41:47;;;;;;;4.90;3.20;;;;;;;28.96;38.42;100738.55;116923;1186;22256;-60
2022/09/08 08:44:52;;;;;;;7.60;2.90;;;;;;;29.20;38.99;100732.26;117040;1186;23454;-61
2022/09/08 08:47:57;;;;;;;6.10;3.20;;;;;;;29.42;37.90;100733.27;119313;1183;21801;-71
2022/09/08 08:50:52;;;;;;;6.60;3.40;;;;;;;29.55;37.74;100722.23;119242;1186;21834;-61
2022/09/08 08:53:43;;;;;;;4.60;3.00;;;;;;;29.57;38.29;100723.33;119235;1186;21771;-62
2022/09/08 08:57:11;;;;;;;5.10;3.10;;;;;;;29.63;37.50;100722.61;117120;1185;23552;-61
2022/09/08 08:59:47;;;;;;;4.10;3.20;;;;;;;29.67;37.07;100724.27;117059;1186;23576;-61
2022/09/08 09:02:46;;;;;;;6.80;2.60;;;;;;;29.60;37.57;100717.86;117217;1183;21845;-61
2022/09/08 09:05:18;;;;;;;6.90;3.10;;;;;;;29.46;36.56;100718.47;117122;1187;23262;-61
2022/09/08 09:08:13;;;;;;;5.30;2.80;;;;;;;29.23;36.86;100718.81;117139;1186;23566;-69
2022/09/08 09:11:17;;;;;;;7.10;3.10;;;;;;;28.90;36.92;100719.03;117235;1186;24249;-70
2022/09/08 09:14:22;;;;;;;6.50;3.00;;;;;;;28.63;37.51;100718.58;117172;1185;22984;-70
2022/09/08 09:17:17;;;;;;;5.30;3.00;;;;;;;28.40;36.96;100713.58;116902;1189;22988;-60
2022/09/08 09:19:59;;;;;;;7.40;3.40;;;;;;;28.20;36.33;100721.70;116956;1191;21856;-69
2022/09/08 09:22:45;;;;;;;4.20;2.90;;;;;;;28.06;37.32;100719.05;117026;1187;23558;-61
2022/09/08 09:25:19;;;;;;;4.30;2.90;;;;;;;28.03;38.05;100716.88;117065;1188;24248;-61
2022/09/08 09:28:17;;;;;;;4.90;3.20;;;;;;;28.10;37.73;100714.23;117141;1188;22936;-70
2022/09/08 09:31:13;;;;;;;6.90;3.70;;;;;;;28.22;37.23;100706.58;117014;1187;21868;-70
2022/09/08 09:34:06;;;;;;;5.20;3.30;;;;;;;28.50;37.29;100704.31;117025;1186;21874;-70
2022/09/08 09:37:02;;;;;;;7.30;3.50;;;;;;;28.94;37.40;100695.83;116888;1189;21848;-68
2022/09/08 09:39:53;;;;;;;6.60;3.20;;;;;;;29.35;36.78;100695.16;116950;1188;22923;-61
2022/09/08 09:42:26;;;;;;;6.20;3.50;;;;;;;29.78;35.36;100693.95;117058;1187;22928;-69
2022/09/08 09:44:56;;;;;;;4.60;3.50;;;;;;;30.11;34.91;100690.91;117119;1182;21865;-61
2022/09/08 09:48:08;;;;;;;8.60;3.80;;;;;;;30.36;35.12;100685.44;116956;1188;21849;-61
2022/09/08 09:51:06;;;;;;;6.80;4.00;;;;;;;30.65;35.09;100687.67;116855;1189;23568;-62
2022/09/08 09:53:51;;;;;;;5.70;3.30;;;;;;;30.88;33.37;100687.21;116962;1187;21870;-61
2022/09/08 09:56:29;;;;;;;4.10;3.20;;;;;;;30.99;33.99;100683.96;116944;1186;23561;-69
2022/09/08 09:59:15;;;;;;;5.40;3.30;;;;;;;31.09;33.20;100682.33;117135;1186;21859;-69
2022/09/08 10:02:01;;;;;;;4.90;3.20;;;;;;;31.18;33.11;100676.84;116996;1187;23816;-61
2022/09/08 10:04:54;;;;;;;5.30;3.00;;;;;;;31.19;33.37;100676.38;117077;1186;21848;-67
2022/09/08 10:07:24;;;;;;;5.00;3.30;;;;;;;31.25;33.80;100679.17;116888;1189;21869;-69
2022/09/08 10:10:11;;;;;;;5.40;3.60;;;;;;;31.40;33.60;100677.59;117144;1188;23560;-62
2022/09/08 10:12:52;;;;;;;6.50;3.30;;;;;;;31.47;33.94;100676.54;116991;1187;23696;-62
2022/09/08 10:15:44;;;;;;;6.90;3.30;;;;;;;31.51;33.55;100676.69;116914;1189;21851;-69
2022/09/08 10:18:31;;;;;;;4.40;3.40;;;;;;;31.53;32.55;100677.40;117037;1188;22574;-69
2022/09/08 10:20:58;;;;;;;5.30;3.10;;;;;;;31.69;33.04;100674.15;116958;1190;21955;-62
2022/09/08 10:23:35;;;;;;;5.10;3.20;;;;;;;31.85;32.86;100671.85;116870;1186;21874;-69
2022/09/08 10:26:24;;;;;;;8.30;3.40;;;;;;;31.96;32.99;100666.98;118188;1188;21860;-62
2022/09/08 10:29:06;;;;;;;4.60;3.10;;;;;;;32.04;32.94;100666.73;117116;1186;22331;-70
2022/09/08 10:32:07;;;;;;;4.40;2.90;;;;;;;31.81;32.60;100668.05;117044;1186;23667;-70
2022/09/08 10:34:35;;;;;;;5.40;3.10;;;;;;;31.52;32.55;100668.33;117104;1186;21879;-62
2022/09/08 10:37:12;;;;;;;4.50;3.10;;;;;;;31.28;32.70;100663.91;116921;1186;22814;-62
2022/09/08 10:39:58;;;;;;;4.90;3.10;;;;;;;31.14;33.74;100660.61;117128;1186;21884;-70
2022/09/08 10:42:29;;;;;;;7.30;3.20;;;;;;;31.16;32.83;100652.86;117175;1186;23773;-62
2022/09/08 10:45:18;;;;;;;5.70;3.50;;;;;;;31.34;32.29;100649.16;116796;1189;22932;-70
2022/09/08 10:47:54;;;;;;;5.90;2.90;;;;;;;31.50;32.11;100644.14;117081;1186;23584;-62
2022/09/08 10:50:31;;;;;;;5.10;3.50;;;;;;;31.57;31.84;100639.73;116895;1188;21927;-62
2022/09/08 10:53:19;;;;;;;6.30;3.30;;;;;;;31.39;31.89;100640.33;116928;1188;22909;-70
2022/09/08 10:55:55;;;;;;;7.10;3.70;;;;;;;31.11;32.11;100645.91;117046;1189;21869;-70
2022/09/08 10:58:50;;;;;;;9.40;3.30;;;;;;;30.92;32.29;100645.14;117196;1183;23896;-70
2022/09/08 11:01:22;;;;;;;7.90;3.40;;;;;;;30.72;33.13;100641.98;117155;1186;22997;-63
2022/09/08 11:04:27;;;;;;;9.30;4.00;;;;;;;30.57;33.07;100638.30;117137;1188;23466;-70
2022/09/08 11:07:20;;;;;;;7.20;4.00;;;;;;;30.47;33.41;100644.60;117221;1182;22924;-69
2022/09/08 11:09:51;;;;;;;7.20;4.00;;;;;;;30.40;33.87;100645.60;117156;1186;22910;-63
2022/09/08 11:13:16;;;;;;;6.10;3.10;;;;;;;30.25;33.98;100641.85;117241;1186;22728;-63
2022/09/08 11:15:43;;;;;;;4.90;3.20;;;;;;;30.21;34.44;100640.27;117159;1184;23701;-70
2022/09/08 11:18:51;;;;;;;7.40;4.80;;;;;;;30.19;34.44;100636.13;117123;1185;22914;-63
2022/09/08 11:21:28;;;;;;;6.20;4.20;;;;;;;30.17;34.75;100626.87;116821;1189;22946;-70
2022/09/08 11:24:28;;;;;;;6.40;3.50;;;;;;;30.08;34.94;100621.50;117264;1189;21830;-63
2022/09/08 11:27:02;;;;;;;5.40;3.00;;;;;;;29.93;35.08;100619.92;117282;1185;21898;-64
2022/09/08 11:29:34;;;;;;;7.60;3.70;;;;;;;29.80;35.15;100615.48;117186;1185;21851;-63
2022/09/08 11:32:10;;;;;;;5.40;3.40;;;;;;;29.66;35.09;100616.55;116998;1188;21921;-69
2022/09/08 11:35:22;;;;;;;6.30;3.00;;;;;;;29.48;35.34;100613.44;117083;1186;23563;-63
2022/09/08 11:38:20;;;;;;;7.20;3.20;;;;;;;29.36;36.10;100614.73;117205;1186;22160;-69
2022/09/08 11:40:57;;;;;;;6.70;3.60;;;;;;;29.28;36.40;100607.77;117134;1186;22651;-70
2022/09/08 11:43:29;;;;;;;6.40;3.20;;;;;;;29.27;36.23;100606.77;117138;1186;21856;-70
2022/09/08 11:46:03;;;;;;;7.40;3.40;;;;;;;29.21;36.56;100606.95;117225;1189;21858;-69
2022/09/08 11:48:43;;;;;;;7.60;3.50;;;;;;;29.12;36.63;100605.59;117137;1187;21872;-69
2022/09/08 11:51:10;;;;;;;;;;;;;;;28.97;37.90;100601.06;117331;1182;23526;-66
2022/09/08 11:54:00;;;;;;;8.90;3.40;;;;;;;28.74;38.51;100603.55;117161;1186;22927;-70
2022/09/08 11:57:09;;;;;;;7.70;3.00;;;;;;;28.55;38.24;100601.02;117132;1186;21867;-69
2022/09/08 11:59:42;;;;;;;8.20;3.40;;;;;;;28.43;38.13;100601.11;117058;1186;21860;-70
2022/09/08 12:02:50;;;;;;;6.70;3.60;;;;;;;28.38;38.07;100598.27;117010;1188;23704;-69
2022/09/08 12:05:29;;;;;;;7.80;3.30;;;;;;;28.28;38.17;100593.70;116514;1191;21865;-69
2022/09/08 12:08:28;;;;;;;5.50;3.50;;;;;;;28.23;38.22;100597.04;117163;1187;21844;-69